createdAt,value
2018-02-22T00:00:06.425Z,37.46
2018-02-22T00:02:32.236Z,37.37
2018-02-22T00:04:58.042Z,38.38
2018-02-22T00:07:23.849Z,37.84
2018-02-22T00:09:49.640Z,37.41
2018-02-22T00:12:15.488Z,37.45
2018-02-22T00:14:41.294Z,37.42
2018-02-22T00:17:07.137Z,37.31
2018-02-22T00:19:32.945Z,37.28
2018-02-22T00:21:58.807Z,37.20
2018-02-22T00:24:24.661Z,37.47
2018-02-22T00:26:50.506Z,37.38
2018-02-22T00:29:16.315Z,37.45
2018-02-22T00:31:42.126Z,37.72
2018-02-22T00:34:07.930Z,37.69
2018-02-22T00:36:33.733Z,37.45
2018-02-22T00:38:59.537Z,37.42
2018-02-22T00:41:32.294Z,37.52
2018-02-22T00:43:58.166Z,37.61
2018-02-22T00:46:24.012Z,37.96
2018-02-22T00:48:49.850Z,37.46
2018-02-22T00:51:15.673Z,37.42
2018-02-22T00:53:41.477Z,37.86
2018-02-22T00:56:07.275Z,37.75
2018-02-22T00:58:33.111Z,37.93
2018-02-22T01:00:58.919Z,38.05
2018-02-22T01:03:24.761Z,38.36
2018-02-22T01:05:50.596Z,37.61
2018-02-22T01:08:16.449Z,37.45
2018-02-22T01:10:42.248Z,37.64
2018-02-22T01:13:08.050Z,37.68
2018-02-22T01:15:33.854Z,37.72
2018-02-22T01:17:59.655Z,37.73
2018-02-22T01:20:25.453Z,37.46
2018-02-22T01:22:51.254Z,37.73
2018-02-22T01:25:17.057Z,37.53
2018-02-22T01:27:42.894Z,37.54
2018-02-22T01:30:08.689Z,37.86
2018-02-22T01:32:34.491Z,37.84
2018-02-22T01:35:00.322Z,37.86
2018-02-22T01:37:26.158Z,38.04
2018-02-22T01:39:51.958Z,37.43
2018-02-22T01:42:17.791Z,37.86
2018-02-22T01:44:43.629Z,38.58
2018-02-22T01:47:09.428Z,37.57
2018-02-22T01:49:35.246Z,37.79
2018-02-22T01:52:01.089Z,38.26
2018-02-22T01:54:33.858Z,38.23
2018-02-22T01:56:59.657Z,38.11
2018-02-22T01:59:25.461Z,37.89
2018-02-22T02:01:51.260Z,37.74
2018-02-22T02:04:17.059Z,37.92
2018-02-22T02:06:42.866Z,38.05
2018-02-22T02:09:08.669Z,37.78
2018-02-22T02:11:34.474Z,37.96
2018-02-22T02:14:00.280Z,37.31
2018-02-22T02:16:26.077Z,37.68
2018-02-22T02:18:51.885Z,37.64
2018-02-22T02:21:17.687Z,37.62
2018-02-22T02:23:43.521Z,37.38
2018-02-22T02:26:09.370Z,37.40
2018-02-22T02:28:35.193Z,39.12
2018-02-22T02:31:01.009Z,37.55
2018-02-22T02:33:26.809Z,37.93
2018-02-22T02:35:52.616Z,37.84
2018-02-22T02:38:18.417Z,37.36
2018-02-22T02:40:44.251Z,37.68
2018-02-22T02:43:10.087Z,37.57
2018-02-22T02:45:35.928Z,37.98
2018-02-22T02:48:01.738Z,37.81
2018-02-22T02:50:27.541Z,38.83
2018-02-22T02:52:53.351Z,38.14
2018-02-22T02:55:19.156Z,38.33
2018-02-22T02:57:44.969Z,37.68
2018-02-22T03:00:10.782Z,38.30
2018-02-22T03:02:36.589Z,37.75
2018-02-22T03:05:02.390Z,38.84
2018-02-22T03:07:28.202Z,37.56
2018-02-22T03:09:54.006Z,37.59
2018-02-22T03:12:19.809Z,37.55
2018-02-22T03:14:45.609Z,37.54
2018-02-22T03:17:11.413Z,37.54
2018-02-22T03:19:37.210Z,37.33
2018-02-22T03:22:03.014Z,37.58
2018-02-22T03:24:29.817Z,37.66
2018-02-22T03:26:56.196Z,37.70
2018-02-22T03:29:22.002Z,37.57
2018-02-22T03:31:47.809Z,37.66
2018-02-22T03:34:13.606Z,37.55
2018-02-22T03:36:39.445Z,38.06
2018-02-22T03:39:05.248Z,37.67
2018-02-22T03:41:31.085Z,38.08
2018-02-22T03:43:56.886Z,37.51
2018-02-22T03:46:22.728Z,37.86
2018-02-22T03:48:48.525Z,37.93
2018-02-22T03:51:14.326Z,37.65
2018-02-22T03:53:40.133Z,37.84
2018-02-22T03:56:05.946Z,38.24
2018-02-22T03:58:31.808Z,37.99
2018-02-22T04:00:57.608Z,38.18
2018-02-22T04:03:23.412Z,38.19
2018-02-22T04:05:49.254Z,38.56
2018-02-22T04:08:15.062Z,37.80
2018-02-22T04:10:40.901Z,37.58
2018-02-22T04:13:06.710Z,37.59
2018-02-22T04:15:32.529Z,37.86
2018-02-22T04:17:58.329Z,37.77
2018-02-22T04:20:24.153Z,37.86
2018-02-22T04:22:49.994Z,38.25
2018-02-22T04:25:15.801Z,37.80
2018-02-22T04:27:41.646Z,38.57
2018-02-22T04:30:07.448Z,37.83
2018-02-22T04:32:33.287Z,37.72
2018-02-22T04:34:59.117Z,37.78
2018-02-22T04:37:24.949Z,38.06
2018-02-22T04:39:50.742Z,37.51
2018-02-22T04:42:16.546Z,37.64
2018-02-22T04:44:42.346Z,37.98
2018-02-22T04:47:08.147Z,37.84
2018-02-22T04:49:34.016Z,38.05
2018-02-22T04:51:59.828Z,37.56
2018-02-22T04:54:25.628Z,37.68
2018-02-22T04:56:51.433Z,37.71
2018-02-22T04:59:17.449Z,37.89
2018-02-22T05:01:43.290Z,37.99
2018-02-22T05:04:09.128Z,38.26
2018-02-22T05:06:34.941Z,37.89
2018-02-22T05:09:00.744Z,38.01
2018-02-22T05:11:26.554Z,37.63
2018-02-22T05:13:52.367Z,37.63
2018-02-22T05:16:18.206Z,37.94
2018-02-22T05:18:43.984Z,37.70
2018-02-22T05:21:09.765Z,37.87
2018-02-22T05:23:35.640Z,38.16
2018-02-22T05:26:01.452Z,37.45
2018-02-22T05:28:27.233Z,37.68
2018-02-22T05:30:53.058Z,37.82
2018-02-22T05:33:18.833Z,37.49
2018-02-22T05:35:44.650Z,37.68
2018-02-22T05:38:10.438Z,37.53
2018-02-22T05:40:36.261Z,38.14
2018-02-22T05:43:02.035Z,37.59
2018-02-22T05:45:27.810Z,38.85
2018-02-22T05:47:53.577Z,37.69
2018-02-22T05:50:19.361Z,37.53
2018-02-22T05:52:45.137Z,38.08
2018-02-22T05:55:10.931Z,38.34
2018-02-22T05:57:36.711Z,38.51
2018-02-22T06:00:02.513Z,37.79
2018-02-22T06:02:28.290Z,37.75
2018-02-22T06:04:54.061Z,38.46
2018-02-22T06:07:19.835Z,38.09
2018-02-22T06:09:45.617Z,38.84
2018-02-22T06:12:11.382Z,37.66
2018-02-22T06:14:37.190Z,37.86
2018-02-22T06:17:02.962Z,37.46
2018-02-22T06:19:28.737Z,37.99
2018-02-22T06:21:54.514Z,37.51
2018-02-22T06:24:20.415Z,37.47
2018-02-22T06:26:46.218Z,37.26
2018-02-22T06:29:11.998Z,37.60
2018-02-22T06:31:37.817Z,38.66
2018-02-22T06:34:03.599Z,37.57
2018-02-22T06:36:30.109Z,37.85
2018-02-22T06:38:55.890Z,38.23
2018-02-22T06:41:21.667Z,37.91
2018-02-22T06:43:47.574Z,37.57
2018-02-22T06:46:13.351Z,37.44
2018-02-22T06:48:39.182Z,37.82
2018-02-22T06:51:04.970Z,37.25
2018-02-22T06:53:30.751Z,37.68
2018-02-22T06:55:56.526Z,37.64
2018-02-22T06:58:22.452Z,37.36
2018-02-22T07:00:49.793Z,38.15
2018-02-22T07:03:24.159Z,37.66
2018-02-22T07:06:03.301Z,38.39
2018-02-22T07:08:29.326Z,37.89
2018-02-22T07:10:55.097Z,37.85
2018-02-22T07:13:20.876Z,38.48
2018-02-22T07:15:46.660Z,38.32
2018-02-22T07:18:12.466Z,38.30
2018-02-22T07:20:38.262Z,38.35
2018-02-22T07:23:04.042Z,38.19
2018-02-22T07:25:29.848Z,37.66
2018-02-22T07:27:55.669Z,37.54
2018-02-22T07:30:21.453Z,38.15
2018-02-22T07:32:47.232Z,38.63
2018-02-22T07:35:13.013Z,37.91
2018-02-22T07:37:38.809Z,37.86
2018-02-22T07:40:04.587Z,38.34
2018-02-22T07:42:30.369Z,38.24
2018-02-22T07:44:56.146Z,37.85
2018-02-22T07:47:21.930Z,38.04
2018-02-22T07:49:47.737Z,38.36
2018-02-22T07:52:13.507Z,38.21
2018-02-22T07:54:39.321Z,37.99
2018-02-22T07:57:05.099Z,37.87
2018-02-22T07:59:30.917Z,38.01
2018-02-22T08:01:56.689Z,37.62
2018-02-22T08:04:22.608Z,38.42
2018-02-22T08:06:48.403Z,38.19
2018-02-22T08:09:14.199Z,38.19
2018-02-22T08:11:39.977Z,37.70
2018-02-22T08:14:05.758Z,38.83
2018-02-22T08:16:31.543Z,37.56
2018-02-22T08:18:57.317Z,37.92
2018-02-22T08:21:23.094Z,37.82
2018-02-22T08:23:49.039Z,37.23
2018-02-22T08:26:14.860Z,37.41
2018-02-22T08:28:40.629Z,37.68
2018-02-22T08:31:06.410Z,37.98
2018-02-22T08:33:32.249Z,37.91
2018-02-22T08:35:58.035Z,38.25
2018-02-22T08:38:23.811Z,38.76
2018-02-22T08:40:49.585Z,39.08
2018-02-22T08:43:15.402Z,37.77
2018-02-22T08:45:41.696Z,37.77
2018-02-22T08:48:08.321Z,37.52
2018-02-22T08:50:34.106Z,38.00
2018-02-22T08:52:59.926Z,39.08
2018-02-22T08:55:25.706Z,37.14
2018-02-22T08:57:51.509Z,36.83
2018-02-22T09:00:17.290Z,36.41
2018-02-22T09:02:43.075Z,35.87
2018-02-22T09:05:08.858Z,35.87
2018-02-22T09:07:34.639Z,36.17
2018-02-22T09:10:00.414Z,36.46
2018-02-22T09:12:26.186Z,36.55
2018-02-22T09:14:51.964Z,36.84
2018-02-22T09:17:17.742Z,37.08
2018-02-22T09:19:43.527Z,36.45
2018-02-22T09:22:09.305Z,36.44
2018-02-22T09:24:35.082Z,36.37
2018-02-22T09:27:00.859Z,35.46
2018-02-22T09:29:26.635Z,35.42
2018-02-22T09:31:52.402Z,35.41
2018-02-22T09:34:18.183Z,35.22
2018-02-22T09:36:44.062Z,35.41
2018-02-22T09:39:09.920Z,36.05
2018-02-22T09:41:35.698Z,35.77
2018-02-22T09:44:01.474Z,36.58
2018-02-22T09:46:27.306Z,35.36
2018-02-22T09:48:53.086Z,36.69
2018-02-22T09:51:18.866Z,35.79
2018-02-22T09:53:44.686Z,35.90
2018-02-22T09:56:10.466Z,35.16
2018-02-22T09:58:36.379Z,34.84
2018-02-22T10:01:02.178Z,34.88
2018-02-22T10:03:27.954Z,35.31
2018-02-22T10:05:53.731Z,34.89
2018-02-22T10:08:19.509Z,35.43
2018-02-22T10:10:45.286Z,35.09
2018-02-22T10:13:11.066Z,34.79
2018-02-22T10:15:37.806Z,34.69
2018-02-22T10:18:03.583Z,34.50
2018-02-22T10:20:29.394Z,34.62
2018-02-22T10:22:55.168Z,34.15
2018-02-22T10:25:20.947Z,33.93
2018-02-22T10:27:46.730Z,33.84
2018-02-22T10:30:12.518Z,34.13
2018-02-22T10:32:38.302Z,34.63
2018-02-22T10:35:04.078Z,34.30
2018-02-22T10:37:29.897Z,34.03
2018-02-22T10:39:55.679Z,33.67
2018-02-22T10:42:21.490Z,33.71
2018-02-22T10:44:47.299Z,33.71
2018-02-22T10:47:13.122Z,33.48
2018-02-22T10:49:38.900Z,33.35
2018-02-22T10:52:04.721Z,33.22
2018-02-22T10:54:30.503Z,33.40
2018-02-22T10:56:56.277Z,33.50
2018-02-22T10:59:22.057Z,33.62
2018-02-22T11:01:54.078Z,33.32
2018-02-22T11:04:19.854Z,32.62
2018-02-22T11:06:45.639Z,32.75
2018-02-22T11:09:11.414Z,33.14
2018-02-22T11:11:37.192Z,33.92
2018-02-22T11:14:02.972Z,32.75
2018-02-22T11:16:28.753Z,32.72
2018-02-22T11:18:54.534Z,33.08
2018-02-22T11:21:20.314Z,32.88
2018-02-22T11:23:46.086Z,33.36
2018-02-22T11:26:11.868Z,32.85
2018-02-22T11:28:37.639Z,32.48
2018-02-22T11:31:03.458Z,32.46
2018-02-22T11:33:29.238Z,32.64
2018-02-22T11:35:55.014Z,32.81
2018-02-22T11:38:20.805Z,32.78
2018-02-22T11:40:46.590Z,32.24
2018-02-22T11:43:13.268Z,32.12
2018-02-22T11:45:39.060Z,32.37
2018-02-22T11:48:04.874Z,32.59
2018-02-22T11:50:30.654Z,32.61
2018-02-22T11:52:56.435Z,32.53
2018-02-22T11:55:22.221Z,33.03
2018-02-22T11:57:48.041Z,32.19
2018-02-22T12:00:13.834Z,31.95
2018-02-22T12:02:39.609Z,31.89
2018-02-22T12:05:05.430Z,31.74
2018-02-22T12:07:31.222Z,31.90
2018-02-22T12:09:57.043Z,32.82
2018-02-22T12:12:22.826Z,34.17
2018-02-22T12:14:48.612Z,33.24
2018-02-22T12:17:15.337Z,32.47
2018-02-22T12:19:41.147Z,32.61
2018-02-22T12:22:06.937Z,32.45
2018-02-22T12:24:32.754Z,31.98
2018-02-22T12:26:58.530Z,31.79
2018-02-22T12:29:24.309Z,31.75
2018-02-22T12:31:50.107Z,32.22
2018-02-22T12:34:15.918Z,31.50
2018-02-22T12:36:41.698Z,31.45
2018-02-22T12:39:07.482Z,31.77
2018-02-22T12:41:33.261Z,31.28
2018-02-22T12:43:59.127Z,31.15
2018-02-22T12:46:24.999Z,31.41
2018-02-22T12:48:50.782Z,33.28
2018-02-22T12:51:16.564Z,33.35
2018-02-22T12:53:42.346Z,32.95
2018-02-22T12:56:08.134Z,33.19
2018-02-22T12:58:33.914Z,33.76
2018-02-22T13:00:59.698Z,32.64
2018-02-22T13:03:25.537Z,32.68
2018-02-22T13:05:51.321Z,31.99
2018-02-22T13:08:17.102Z,31.80
2018-02-22T13:10:42.886Z,31.87
2018-02-22T13:13:08.694Z,31.89
2018-02-22T13:15:34.483Z,32.38
2018-02-22T13:18:00.294Z,32.36
2018-02-22T13:20:26.106Z,31.88
2018-02-22T13:22:51.890Z,32.03
2018-02-22T13:25:17.702Z,31.87
2018-02-22T13:27:43.489Z,32.34
2018-02-22T13:30:09.306Z,31.81
2018-02-22T13:32:41.313Z,32.51
2018-02-22T13:35:07.095Z,32.33
2018-02-22T13:40:24.158Z,32.72
2018-02-22T13:42:49.935Z,32.53
2018-02-22T13:45:21.998Z,32.87
2018-02-22T13:47:47.786Z,34.10
2018-02-22T13:50:19.686Z,34.99
2018-02-22T13:52:45.464Z,32.83
2018-02-22T13:55:11.283Z,33.99
2018-02-22T13:57:37.066Z,31.93
2018-02-22T14:00:02.899Z,31.57
2018-02-22T14:02:28.742Z,31.89
2018-02-22T14:04:55.126Z,32.25
2018-02-22T14:07:20.955Z,32.63
2018-02-22T14:09:46.738Z,33.37
2018-02-22T14:12:12.569Z,32.99
2018-02-22T14:14:38.354Z,32.66
2018-02-22T14:17:04.133Z,32.34
2018-02-22T14:19:29.954Z,32.30
2018-02-22T14:21:55.732Z,32.15
2018-02-22T14:24:21.506Z,33.56
2018-02-22T14:26:47.305Z,32.94
2018-02-22T14:29:13.093Z,32.85
2018-02-22T14:31:38.867Z,32.17
2018-02-22T14:34:04.646Z,32.59
2018-02-22T14:36:30.427Z,32.66
2018-02-22T14:38:56.216Z,33.08
2018-02-22T14:41:22.014Z,32.52
2018-02-22T14:43:47.794Z,32.32
2018-02-22T14:46:13.570Z,32.95
2018-02-22T14:48:39.349Z,34.05
2018-02-22T14:51:05.121Z,32.76
2018-02-22T14:53:37.899Z,32.95
2018-02-22T14:56:03.682Z,33.31
2018-02-22T14:58:29.463Z,32.78
2018-02-22T15:01:09.374Z,32.81
2018-02-22T15:03:35.149Z,32.30
2018-02-22T15:06:00.931Z,32.68
2018-02-22T15:08:26.725Z,34.25
2018-02-22T15:10:52.506Z,32.78
2018-02-22T15:13:18.295Z,33.86
2018-02-22T15:15:44.079Z,32.89
2018-02-22T15:18:09.891Z,32.71
2018-02-22T15:20:35.710Z,32.70
2018-02-22T15:23:01.502Z,33.13
2018-02-22T15:25:27.279Z,32.94
2018-02-22T15:27:53.058Z,33.61
2018-02-22T15:30:18.838Z,32.90
2018-02-22T15:32:44.611Z,33.02
2018-02-22T15:35:10.431Z,33.06
2018-02-22T15:37:36.215Z,32.88
2018-02-22T15:40:02.047Z,33.00
2018-02-22T15:42:27.853Z,32.90
2018-02-22T15:44:53.664Z,34.45
2018-02-22T15:47:19.442Z,33.43
2018-02-22T15:49:45.628Z,33.21
2018-02-22T15:52:11.412Z,32.50
2018-02-22T15:54:37.192Z,33.49
2018-02-22T15:57:03.018Z,33.12
2018-02-22T15:59:28.806Z,33.24
2018-02-22T16:01:54.586Z,33.36
2018-02-22T16:04:20.370Z,33.66
2018-02-22T16:06:46.156Z,34.67
2018-02-22T16:09:11.938Z,33.40
2018-02-22T16:11:37.728Z,33.99
2018-02-22T16:14:03.518Z,33.47
2018-02-22T16:16:29.298Z,34.20
2018-02-22T16:18:55.128Z,33.53
2018-02-22T16:21:20.898Z,33.43
2018-02-22T16:23:46.689Z,33.72
2018-02-22T16:26:12.475Z,33.97
2018-02-22T16:28:38.257Z,34.09
2018-02-22T16:31:04.082Z,33.79
2018-02-22T16:33:29.896Z,34.02
2018-02-22T16:35:55.678Z,33.90
2018-02-22T16:38:21.492Z,33.43
2018-02-22T16:40:47.276Z,33.37
2018-02-22T16:43:13.089Z,34.07
2018-02-22T16:45:38.909Z,35.31
2018-02-22T16:48:04.731Z,34.66
2018-02-22T16:50:30.753Z,34.55
2018-02-22T16:52:56.531Z,34.34
2018-02-22T16:55:22.383Z,33.91
2018-02-22T16:57:48.195Z,33.73
2018-02-22T17:00:14.027Z,35.07
2018-02-22T17:02:39.804Z,33.51
2018-02-22T17:05:05.583Z,35.29
2018-02-22T17:07:31.362Z,33.85
2018-02-22T17:09:57.146Z,33.80
2018-02-22T17:12:22.967Z,34.69
2018-02-22T17:14:48.747Z,34.13
2018-02-22T17:17:14.649Z,34.52
2018-02-22T17:19:40.410Z,34.56
2018-02-22T17:22:06.226Z,34.01
2018-02-22T17:24:32.023Z,34.01
2018-02-22T17:27:03.938Z,34.25
2018-02-22T17:29:35.906Z,34.96
2018-02-22T17:32:07.881Z,34.53
2018-02-22T17:34:33.689Z,35.27
2018-02-22T17:40:03.655Z,34.74
2018-02-22T17:42:30.220Z,34.45
2018-02-22T17:44:56.065Z,34.72
2018-02-22T17:47:21.886Z,35.34
2018-02-22T17:49:47.685Z,34.36
2018-02-22T17:52:13.514Z,34.38
2018-02-22T17:54:39.302Z,34.03
2018-02-22T17:57:05.134Z,34.17
2018-02-22T17:59:30.926Z,34.56
2018-02-22T18:01:56.753Z,34.18
2018-02-22T18:04:22.532Z,33.95
2018-02-22T18:06:48.337Z,33.63
2018-02-22T18:09:14.139Z,33.84
2018-02-22T18:11:39.922Z,34.16
2018-02-22T18:14:05.689Z,34.06
2018-02-22T18:16:31.466Z,34.48
2018-02-22T18:18:57.254Z,34.35
2018-02-22T18:21:23.030Z,34.50
2018-02-22T18:23:48.858Z,33.93
2018-02-22T18:26:14.642Z,34.49
2018-02-22T18:28:40.439Z,34.32
2018-02-22T18:31:06.222Z,34.18
2018-02-22T18:33:32.019Z,33.80
2018-02-22T18:35:57.825Z,33.63
2018-02-22T18:38:23.615Z,33.85
2018-02-22T18:40:55.484Z,33.83
2018-02-22T18:43:27.527Z,34.04
2018-02-22T18:45:53.306Z,33.92
2018-02-22T18:48:19.135Z,33.71
2018-02-22T18:50:45.722Z,34.70
2018-02-22T18:53:11.541Z,34.40
2018-02-22T18:55:37.322Z,34.22
2018-02-22T18:58:03.108Z,34.81
2018-02-22T19:00:28.898Z,34.32
2018-02-22T19:02:54.679Z,34.05
2018-02-22T19:05:20.455Z,34.41
2018-02-22T19:07:46.231Z,34.43
2018-02-22T19:10:12.936Z,34.34
2018-02-22T19:12:38.718Z,34.67
2018-02-22T19:15:04.490Z,34.38
2018-02-22T19:17:30.316Z,34.63
2018-02-22T19:19:56.094Z,34.12
2018-02-22T19:22:21.870Z,34.74
2018-02-22T19:24:47.802Z,34.24
2018-02-22T19:27:13.578Z,34.31
2018-02-22T19:29:39.354Z,34.63
2018-02-22T19:32:05.126Z,34.34
2018-02-22T19:34:30.906Z,34.43
2018-02-22T19:36:56.687Z,34.55
2018-02-22T19:39:22.469Z,34.30
2018-02-22T19:41:48.250Z,34.09
2018-02-22T19:44:14.062Z,33.98
2018-02-22T19:46:39.887Z,34.12
2018-02-22T19:49:05.834Z,33.85
2018-02-22T19:51:31.619Z,33.98
2018-02-22T19:53:57.426Z,33.73
2018-02-22T19:56:23.215Z,33.67
2018-02-22T19:58:49.114Z,33.65
2018-02-22T20:01:15.510Z,33.85
2018-02-22T20:03:41.342Z,33.84
2018-02-22T20:06:07.123Z,33.76
2018-02-22T20:08:32.906Z,33.84
2018-02-22T20:10:58.695Z,33.87
2018-02-22T20:13:24.473Z,34.14
2018-02-22T20:15:50.322Z,34.18
2018-02-22T20:18:16.099Z,34.03
2018-02-22T20:20:41.881Z,34.21
2018-02-22T20:23:07.673Z,34.03
2018-02-22T20:25:33.455Z,34.11
2018-02-22T20:27:59.233Z,34.12
2018-02-22T20:30:25.013Z,34.03
2018-02-22T20:32:50.793Z,34.12
2018-02-22T20:35:16.603Z,33.97
2018-02-22T20:37:42.429Z,33.95
2018-02-22T20:40:08.187Z,34.10
2018-02-22T20:42:33.986Z,34.08
2018-02-22T20:44:59.794Z,33.99
2018-02-22T20:47:25.589Z,34.11
2018-02-22T20:49:51.378Z,34.13
2018-02-22T20:52:27.139Z,34.52
2018-02-22T20:55:07.866Z,34.33
2018-02-22T20:57:33.658Z,34.83
2018-02-22T20:59:59.454Z,34.51
2018-02-22T21:02:25.292Z,34.76
2018-02-22T21:04:51.889Z,34.47
2018-02-22T21:07:17.723Z,34.55
2018-02-22T21:09:43.505Z,34.75
2018-02-22T21:13:48.094Z,36.02
2018-02-22T21:16:14.029Z,35.84
2018-02-22T21:18:39.814Z,35.60
2018-02-22T21:21:05.590Z,35.39
2018-02-22T21:23:31.374Z,35.45
2018-02-22T21:25:57.146Z,35.47
2018-02-22T21:28:22.970Z,35.24
2018-02-22T21:30:48.749Z,35.55
2018-02-22T21:33:14.617Z,35.72
2018-02-22T21:35:40.497Z,35.52
2018-02-22T21:38:06.375Z,35.31
2018-02-22T21:40:32.373Z,35.90
2018-02-22T21:42:58.159Z,35.83
2018-02-22T21:45:24.108Z,36.22
2018-02-22T21:47:49.890Z,35.54
2018-02-22T21:50:15.701Z,35.84
2018-02-22T21:52:41.633Z,36.45
2018-02-22T21:55:09.691Z,36.09
2018-02-22T21:57:35.640Z,35.97
2018-02-22T22:00:01.414Z,35.87
2018-02-22T22:02:27.266Z,35.30
2018-02-22T22:04:53.189Z,35.34
2018-02-22T22:07:19.003Z,35.19
2018-02-22T22:09:44.811Z,35.01
2018-02-22T22:12:10.598Z,35.46
2018-02-22T22:14:36.382Z,35.61
2018-02-22T22:17:02.210Z,35.31
2018-02-22T22:19:27.985Z,35.41
2018-02-22T22:21:56.477Z,35.64
2018-02-22T22:24:22.254Z,35.07
2018-02-22T22:26:48.037Z,35.55
2018-02-22T22:29:13.813Z,35.70
2018-02-22T22:31:39.594Z,35.81
2018-02-22T22:34:05.418Z,35.68
2018-02-22T22:36:31.197Z,35.62
2018-02-22T22:38:57.014Z,35.60
2018-02-22T22:41:22.810Z,35.94
2018-02-22T22:43:48.635Z,35.81
2018-02-22T22:46:14.422Z,35.57
2018-02-22T22:48:40.228Z,35.51
2018-02-22T22:51:06.012Z,35.49
2018-02-22T22:53:31.790Z,35.49
2018-02-22T22:55:57.574Z,35.44
2018-02-22T22:58:23.367Z,35.54
2018-02-22T23:00:49.290Z,35.28
2018-02-22T23:03:15.066Z,35.49
2018-02-22T23:05:40.846Z,35.53
2018-02-22T23:08:06.617Z,35.64
2018-02-22T23:10:32.394Z,35.94
2018-02-22T23:12:58.178Z,36.04
2018-02-22T23:15:23.953Z,36.00
2018-02-22T23:17:49.730Z,35.75
2018-02-22T23:20:15.565Z,36.36
2018-02-22T23:22:41.380Z,35.66
2018-02-22T23:25:07.162Z,36.03
2018-02-22T23:27:32.946Z,36.13
2018-02-22T23:29:58.722Z,36.18
2018-02-22T23:32:24.499Z,37.03
2018-02-22T23:34:50.295Z,36.12
2018-02-22T23:37:16.149Z,36.39
2018-02-22T23:39:42.797Z,35.97
2018-02-22T23:42:15.547Z,36.06
2018-02-22T23:44:41.325Z,36.52
2018-02-22T23:47:07.265Z,36.95
2018-02-22T23:49:33.059Z,35.72
2018-02-22T23:51:58.848Z,35.78
2018-02-22T23:54:24.650Z,36.33
2018-02-22T23:56:50.454Z,35.84
2018-02-22T23:59:16.260Z,37.02
